sensor_id;sensor_type;location;lat;lon;timestamp;P1;durP1;ratioP1;P2;durP2;ratioP2
5898;SDS011;2975;50.956;6.962;2023-04-30T00:02:19;44.17;;;27.73;;
5898;SDS011;2975;50.956;6.962;2023-04-30T00:04:44;38.87;;;27.70;;
5898;SDS011;2975;50.956;6.962;2023-04-30T00:07:10;43.43;;;27.40;;
5898;SDS011;2975;50.956;6.962;2023-04-30T00:09:36;40.47;;;26.27;;
5898;SDS011;2975;50.956;6.962;2023-04-30T00:12:01;42.17;;;27.40;;
5898;SDS011;2975;50.956;6.962;2023-04-30T00:14:27;42.53;;;27.93;;
5898;SDS011;2975;50.956;6.962;2023-04-30T00:16:53;41.23;;;26.70;;
5898;SDS011;2975;50.956;6.962;2023-04-30T00:19:18;41.20;;;26.47;;
5898;SDS011;2975;50.956;6.962;2023-04-30T00:21:44;36.57;;;24.90;;
5898;SDS011;2975;50.956;6.962;2023-04-30T00:24:09;35.77;;;25.33;;
5898;SDS011;2975;50.956;6.962;2023-04-30T00:26:35;43.80;;;25.93;;
5898;SDS011;2975;50.956;6.962;2023-04-30T00:29:01;37.20;;;24.40;;
5898;SDS011;2975;50.956;6.962;2023-04-30T00:31:26;34.77;;;23.37;;
5898;SDS011;2975;50.956;6.962;2023-04-30T00:33:52;30.07;;;21.93;;
5898;SDS011;2975;50.956;6.962;2023-04-30T00:36:17;34.87;;;22.93;;
5898;SDS011;2975;50.956;6.962;2023-04-30T00:38:43;33.13;;;22.70;;
5898;SDS011;2975;50.956;6.962;2023-04-30T00:41:08;31.30;;;21.80;;
5898;SDS011;2975;50.956;6.962;2023-04-30T00:43:34;40.23;;;22.87;;
5898;SDS011;2975;50.956;6.962;2023-04-30T00:46:00;32.50;;;22.13;;
5898;SDS011;2975;50.956;6.962;2023-04-30T00:48:27;29.57;;;20.37;;
5898;SDS011;2975;50.956;6.962;2023-04-30T00:50:53;37.23;;;22.40;;
5898;SDS011;2975;50.956;6.962;2023-04-30T00:53:19;30.70;;;20.67;;
5898;SDS011;2975;50.956;6.962;2023-04-30T00:55:45;29.13;;;20.03;;
5898;SDS011;2975;50.956;6.962;2023-04-30T00:58:12;31.73;;;21.30;;
5898;SDS011;2975;50.956;6.962;2023-04-30T01:00:37;29.10;;;20.30;;
5898;SDS011;2975;50.956;6.962;2023-04-30T01:03:07;31.07;;;20.63;;
5898;SDS011;2975;50.956;6.962;2023-04-30T01:05:32;33.50;;;20.03;;
5898;SDS011;2975;50.956;6.962;2023-04-30T01:07:58;30.40;;;20.03;;
5898;SDS011;2975;50.956;6.962;2023-04-30T01:10:26;28.37;;;19.13;;
5898;SDS011;2975;50.956;6.962;2023-04-30T01:13:39;27.93;;;18.97;;
5898;SDS011;2975;50.956;6.962;2023-04-30T01:15:58;27.40;;;19.13;;
5898;SDS011;2975;50.956;6.962;2023-04-30T01:21:33;27.37;;;18.60;;
5898;SDS011;2975;50.956;6.962;2023-04-30T01:29:13;28.00;;;18.73;;
5898;SDS011;2975;50.956;6.962;2023-04-30T01:31:42;25.93;;;17.63;;
5898;SDS011;2975;50.956;6.962;2023-04-30T01:34:08;27.77;;;17.77;;
5898;SDS011;2975;50.956;6.962;2023-04-30T01:42:24;26.40;;;16.67;;
5898;SDS011;2975;50.956;6.962;2023-04-30T01:45:11;30.03;;;16.53;;
5898;SDS011;2975;50.956;6.962;2023-04-30T01:47:54;23.77;;;15.70;;
5898;SDS011;2975;50.956;6.962;2023-04-30T01:53:02;24.93;;;16.00;;
5898;SDS011;2975;50.956;6.962;2023-04-30T01:57:59;26.03;;;16.13;;
5898;SDS011;2975;50.956;6.962;2023-04-30T02:00:27;21.40;;;14.67;;
5898;SDS011;2975;50.956;6.962;2023-04-30T02:02:56;24.20;;;15.10;;
5898;SDS011;2975;50.956;6.962;2023-04-30T02:05:25;22.63;;;14.47;;
5898;SDS011;2975;50.956;6.962;2023-04-30T02:07:51;21.73;;;15.10;;
5898;SDS011;2975;50.956;6.962;2023-04-30T02:10:19;18.43;;;13.80;;
5898;SDS011;2975;50.956;6.962;2023-04-30T02:12:46;24.00;;;14.97;;
5898;SDS011;2975;50.956;6.962;2023-04-30T02:15:11;23.93;;;14.40;;
5898;SDS011;2975;50.956;6.962;2023-04-30T02:17:37;23.30;;;14.73;;
5898;SDS011;2975;50.956;6.962;2023-04-30T02:20:03;19.37;;;14.13;;
5898;SDS011;2975;50.956;6.962;2023-04-30T02:22:29;20.97;;;13.60;;
5898;SDS011;2975;50.956;6.962;2023-04-30T02:24:55;21.63;;;13.60;;
5898;SDS011;2975;50.956;6.962;2023-04-30T02:27:21;21.00;;;13.03;;
5898;SDS011;2975;50.956;6.962;2023-04-30T02:29:48;20.43;;;12.70;;
5898;SDS011;2975;50.956;6.962;2023-04-30T02:32:13;18.00;;;12.23;;
5898;SDS011;2975;50.956;6.962;2023-04-30T02:34:40;16.60;;;12.83;;
5898;SDS011;2975;50.956;6.962;2023-04-30T02:37:05;20.67;;;13.37;;
5898;SDS011;2975;50.956;6.962;2023-04-30T02:39:32;22.47;;;12.57;;
5898;SDS011;2975;50.956;6.962;2023-04-30T02:41:57;17.23;;;12.23;;
5898;SDS011;2975;50.956;6.962;2023-04-30T02:44:23;18.27;;;11.93;;
5898;SDS011;2975;50.956;6.962;2023-04-30T02:46:49;16.90;;;11.47;;
5898;SDS011;2975;50.956;6.962;2023-04-30T02:49:14;18.03;;;11.77;;
5898;SDS011;2975;50.956;6.962;2023-04-30T02:51:40;20.70;;;12.43;;
5898;SDS011;2975;50.956;6.962;2023-04-30T02:54:06;17.83;;;12.50;;
5898;SDS011;2975;50.956;6.962;2023-04-30T02:56:32;19.77;;;13.40;;
5898;SDS011;2975;50.956;6.962;2023-04-30T02:58:58;18.83;;;12.87;;
5898;SDS011;2975;50.956;6.962;2023-04-30T03:01:24;17.77;;;12.97;;
5898;SDS011;2975;50.956;6.962;2023-04-30T03:03:50;17.90;;;12.33;;
5898;SDS011;2975;50.956;6.962;2023-04-30T03:06:16;19.67;;;12.37;;
5898;SDS011;2975;50.956;6.962;2023-04-30T03:08:41;20.00;;;12.37;;
5898;SDS011;2975;50.956;6.962;2023-04-30T03:11:07;19.10;;;13.00;;
5898;SDS011;2975;50.956;6.962;2023-04-30T03:13:33;20.80;;;13.43;;
5898;SDS011;2975;50.956;6.962;2023-04-30T03:16:02;18.27;;;12.70;;
5898;SDS011;2975;50.956;6.962;2023-04-30T03:18:28;18.97;;;12.77;;
5898;SDS011;2975;50.956;6.962;2023-04-30T03:20:55;20.47;;;13.07;;
5898;SDS011;2975;50.956;6.962;2023-04-30T03:23:21;18.50;;;12.30;;
5898;SDS011;2975;50.956;6.962;2023-04-30T03:25:47;20.00;;;12.63;;
5898;SDS011;2975;50.956;6.962;2023-04-30T03:28:13;17.63;;;12.90;;
5898;SDS011;2975;50.956;6.962;2023-04-30T03:30:39;25.20;;;13.70;;
5898;SDS011;2975;50.956;6.962;2023-04-30T03:33:05;18.10;;;13.07;;
5898;SDS011;2975;50.956;6.962;2023-04-30T03:35:31;20.30;;;13.40;;
5898;SDS011;2975;50.956;6.962;2023-04-30T03:37:58;19.03;;;12.77;;
5898;SDS011;2975;50.956;6.962;2023-04-30T03:40:24;18.57;;;12.53;;
5898;SDS011;2975;50.956;6.962;2023-04-30T03:42:50;20.93;;;13.47;;
5898;SDS011;2975;50.956;6.962;2023-04-30T03:45:15;19.03;;;12.93;;
5898;SDS011;2975;50.956;6.962;2023-04-30T03:47:41;22.00;;;14.17;;
5898;SDS011;2975;50.956;6.962;2023-04-30T03:50:08;21.30;;;13.60;;
5898;SDS011;2975;50.956;6.962;2023-04-30T03:52:34;19.00;;;12.37;;
5898;SDS011;2975;50.956;6.962;2023-04-30T03:55:00;24.13;;;13.87;;
5898;SDS011;2975;50.956;6.962;2023-04-30T03:57:30;18.20;;;13.17;;
5898;SDS011;2975;50.956;6.962;2023-04-30T03:59:56;17.00;;;12.90;;
5898;SDS011;2975;50.956;6.962;2023-04-30T04:02:22;19.53;;;13.47;;
5898;SDS011;2975;50.956;6.962;2023-04-30T04:04:48;17.00;;;12.97;;
5898;SDS011;2975;50.956;6.962;2023-04-30T04:07:15;19.40;;;12.73;;
5898;SDS011;2975;50.956;6.962;2023-04-30T04:09:41;21.60;;;13.37;;
5898;SDS011;2975;50.956;6.962;2023-04-30T04:12:06;19.37;;;12.13;;
5898;SDS011;2975;50.956;6.962;2023-04-30T04:14:32;19.50;;;12.90;;
5898;SDS011;2975;50.956;6.962;2023-04-30T04:16:58;17.83;;;12.57;;
5898;SDS011;2975;50.956;6.962;2023-04-30T04:19:25;20.10;;;12.87;;
5898;SDS011;2975;50.956;6.962;2023-04-30T04:21:51;20.33;;;13.00;;
5898;SDS011;2975;50.956;6.962;2023-04-30T04:24:16;18.10;;;12.57;;
5898;SDS011;2975;50.956;6.962;2023-04-30T04:26:42;20.60;;;12.50;;
5898;SDS011;2975;50.956;6.962;2023-04-30T04:29:08;20.87;;;13.17;;
5898;SDS011;2975;50.956;6.962;2023-04-30T04:31:34;20.50;;;13.60;;
5898;SDS011;2975;50.956;6.962;2023-04-30T04:34:01;21.07;;;13.63;;
5898;SDS011;2975;50.956;6.962;2023-04-30T04:36:28;20.17;;;13.40;;
5898;SDS011;2975;50.956;6.962;2023-04-30T04:38:57;19.57;;;13.03;;
5898;SDS011;2975;50.956;6.962;2023-04-30T04:41:29;19.30;;;12.87;;
5898;SDS011;2975;50.956;6.962;2023-04-30T04:43:59;16.03;;;12.33;;
5898;SDS011;2975;50.956;6.962;2023-04-30T04:46:29;16.80;;;11.53;;
5898;SDS011;2975;50.956;6.962;2023-04-30T04:48:55;19.40;;;12.97;;
5898;SDS011;2975;50.956;6.962;2023-04-30T04:51:24;18.73;;;12.53;;
5898;SDS011;2975;50.956;6.962;2023-04-30T04:53:50;17.47;;;12.07;;
5898;SDS011;2975;50.956;6.962;2023-04-30T04:56:16;17.50;;;12.13;;
5898;SDS011;2975;50.956;6.962;2023-04-30T04:58:43;17.53;;;11.50;;
5898;SDS011;2975;50.956;6.962;2023-04-30T05:01:09;16.87;;;11.13;;
5898;SDS011;2975;50.956;6.962;2023-04-30T05:03:35;16.43;;;11.53;;
5898;SDS011;2975;50.956;6.962;2023-04-30T05:06:03;19.87;;;11.47;;
5898;SDS011;2975;50.956;6.962;2023-04-30T05:08:29;15.83;;;10.60;;
5898;SDS011;2975;50.956;6.962;2023-04-30T05:10:55;15.37;;;10.07;;
5898;SDS011;2975;50.956;6.962;2023-04-30T05:13:21;17.27;;;11.03;;
5898;SDS011;2975;50.956;6.962;2023-04-30T05:15:50;16.37;;;11.07;;
5898;SDS011;2975;50.956;6.962;2023-04-30T05:18:17;14.07;;;9.00;;
5898;SDS011;2975;50.956;6.962;2023-04-30T05:20:42;11.27;;;8.67;;
5898;SDS011;2975;50.956;6.962;2023-04-30T05:23:08;13.27;;;9.03;;
5898;SDS011;2975;50.956;6.962;2023-04-30T05:25:37;10.27;;;7.60;;
5898;SDS011;2975;50.956;6.962;2023-04-30T05:28:03;9.20;;;7.43;;
5898;SDS011;2975;50.956;6.962;2023-04-30T05:30:29;9.70;;;7.27;;
5898;SDS011;2975;50.956;6.962;2023-04-30T05:32:55;11.40;;;7.43;;
5898;SDS011;2975;50.956;6.962;2023-04-30T05:35:21;9.03;;;7.00;;
5898;SDS011;2975;50.956;6.962;2023-04-30T05:37:47;11.43;;;7.80;;
5898;SDS011;2975;50.956;6.962;2023-04-30T05:40:12;9.57;;;7.03;;
5898;SDS011;2975;50.956;6.962;2023-04-30T05:42:38;11.00;;;7.70;;
5898;SDS011;2975;50.956;6.962;2023-04-30T05:45:05;10.37;;;7.50;;
5898;SDS011;2975;50.956;6.962;2023-04-30T05:47:31;11.70;;;7.93;;
5898;SDS011;2975;50.956;6.962;2023-04-30T05:49:57;10.50;;;7.63;;
5898;SDS011;2975;50.956;6.962;2023-04-30T05:52:23;12.10;;;7.83;;
5898;SDS011;2975;50.956;6.962;2023-04-30T05:54:49;9.70;;;7.53;;
5898;SDS011;2975;50.956;6.962;2023-04-30T05:57:15;10.23;;;7.67;;
5898;SDS011;2975;50.956;6.962;2023-04-30T05:59:41;9.27;;;8.03;;
5898;SDS011;2975;50.956;6.962;2023-04-30T06:02:07;11.17;;;8.17;;
5898;SDS011;2975;50.956;6.962;2023-04-30T06:04:33;10.10;;;7.87;;
5898;SDS011;2975;50.956;6.962;2023-04-30T06:07:00;8.73;;;7.73;;
5898;SDS011;2975;50.956;6.962;2023-04-30T06:09:26;13.43;;;9.07;;
5898;SDS011;2975;50.956;6.962;2023-04-30T06:11:51;13.63;;;9.00;;
5898;SDS011;2975;50.956;6.962;2023-04-30T06:14:17;10.50;;;9.07;;
5898;SDS011;2975;50.956;6.962;2023-04-30T06:16:44;13.07;;;9.77;;
5898;SDS011;2975;50.956;6.962;2023-04-30T06:19:10;10.87;;;8.87;;
5898;SDS011;2975;50.956;6.962;2023-04-30T06:21:36;11.63;;;8.57;;
5898;SDS011;2975;50.956;6.962;2023-04-30T06:24:01;12.70;;;8.80;;
5898;SDS011;2975;50.956;6.962;2023-04-30T06:26:27;14.53;;;8.90;;
5898;SDS011;2975;50.956;6.962;2023-04-30T06:28:53;14.47;;;9.23;;
5898;SDS011;2975;50.956;6.962;2023-04-30T06:31:18;10.67;;;9.53;;
5898;SDS011;2975;50.956;6.962;2023-04-30T06:33:45;11.70;;;8.93;;
5898;SDS011;2975;50.956;6.962;2023-04-30T06:36:10;14.27;;;9.23;;
5898;SDS011;2975;50.956;6.962;2023-04-30T06:38:36;11.53;;;8.90;;
5898;SDS011;2975;50.956;6.962;2023-04-30T06:41:01;14.13;;;9.80;;
5898;SDS011;2975;50.956;6.962;2023-04-30T06:43:27;14.13;;;8.87;;
5898;SDS011;2975;50.956;6.962;2023-04-30T06:45:52;12.13;;;8.70;;
5898;SDS011;2975;50.956;6.962;2023-04-30T06:48:18;11.20;;;8.83;;
5898;SDS011;2975;50.956;6.962;2023-04-30T06:50:44;11.30;;;8.53;;
5898;SDS011;2975;50.956;6.962;2023-04-30T06:53:13;14.27;;;10.03;;
5898;SDS011;2975;50.956;6.962;2023-04-30T06:55:40;13.17;;;9.40;;
5898;SDS011;2975;50.956;6.962;2023-04-30T06:58:06;10.40;;;8.47;;
5898;SDS011;2975;50.956;6.962;2023-04-30T07:00:32;12.97;;;8.83;;
5898;SDS011;2975;50.956;6.962;2023-04-30T07:02:58;11.70;;;9.37;;
5898;SDS011;2975;50.956;6.962;2023-04-30T07:05:26;12.43;;;9.67;;
5898;SDS011;2975;50.956;6.962;2023-04-30T07:07:52;18.93;;;10.33;;
5898;SDS011;2975;50.956;6.962;2023-04-30T07:10:18;17.37;;;11.17;;
5898;SDS011;2975;50.956;6.962;2023-04-30T07:12:44;12.10;;;9.10;;
5898;SDS011;2975;50.956;6.962;2023-04-30T07:15:09;12.97;;;10.00;;
5898;SDS011;2975;50.956;6.962;2023-04-30T07:17:35;18.47;;;10.77;;
5898;SDS011;2975;50.956;6.962;2023-04-30T07:20:02;14.30;;;10.07;;
5898;SDS011;2975;50.956;6.962;2023-04-30T07:22:28;13.50;;;10.83;;
5898;SDS011;2975;50.956;6.962;2023-04-30T07:24:57;15.60;;;10.73;;
5898;SDS011;2975;50.956;6.962;2023-04-30T07:27:23;14.57;;;9.90;;
5898;SDS011;2975;50.956;6.962;2023-04-30T07:29:48;13.73;;;9.47;;
5898;SDS011;2975;50.956;6.962;2023-04-30T07:32:15;14.77;;;9.27;;
5898;SDS011;2975;50.956;6.962;2023-04-30T07:34:41;13.23;;;9.67;;
5898;SDS011;2975;50.956;6.962;2023-04-30T07:37:07;11.83;;;9.73;;
5898;SDS011;2975;50.956;6.962;2023-04-30T07:39:33;12.97;;;9.77;;
5898;SDS011;2975;50.956;6.962;2023-04-30T07:41:59;12.03;;;9.07;;
5898;SDS011;2975;50.956;6.962;2023-04-30T07:44:27;14.77;;;9.23;;
5898;SDS011;2975;50.956;6.962;2023-04-30T07:46:52;13.40;;;10.17;;
5898;SDS011;2975;50.956;6.962;2023-04-30T07:49:18;14.63;;;10.97;;
5898;SDS011;2975;50.956;6.962;2023-04-30T07:51:44;12.80;;;9.80;;
5898;SDS011;2975;50.956;6.962;2023-04-30T07:54:10;11.57;;;8.83;;
5898;SDS011;2975;50.956;6.962;2023-04-30T07:56:35;11.80;;;8.53;;
5898;SDS011;2975;50.956;6.962;2023-04-30T07:59:01;15.07;;;9.50;;
5898;SDS011;2975;50.956;6.962;2023-04-30T08:01:27;13.13;;;8.90;;
5898;SDS011;2975;50.956;6.962;2023-04-30T08:03:52;15.03;;;10.73;;
5898;SDS011;2975;50.956;6.962;2023-04-30T08:06:18;12.93;;;9.40;;
5898;SDS011;2975;50.956;6.962;2023-04-30T08:08:44;13.30;;;8.67;;
5898;SDS011;2975;50.956;6.962;2023-04-30T08:11:10;12.43;;;8.20;;
5898;SDS011;2975;50.956;6.962;2023-04-30T08:13:36;10.70;;;8.20;;
5898;SDS011;2975;50.956;6.962;2023-04-30T08:16:02;12.27;;;8.73;;
5898;SDS011;2975;50.956;6.962;2023-04-30T08:18:28;11.13;;;9.40;;
5898;SDS011;2975;50.956;6.962;2023-04-30T08:20:54;13.60;;;8.73;;
5898;SDS011;2975;50.956;6.962;2023-04-30T08:23:19;10.77;;;8.30;;
5898;SDS011;2975;50.956;6.962;2023-04-30T08:25:45;12.07;;;7.63;;
5898;SDS011;2975;50.956;6.962;2023-04-30T08:28:11;12.93;;;7.53;;
5898;SDS011;2975;50.956;6.962;2023-04-30T08:30:37;11.20;;;7.53;;
5898;SDS011;2975;50.956;6.962;2023-04-30T08:33:03;9.20;;;6.77;;
5898;SDS011;2975;50.956;6.962;2023-04-30T08:35:29;9.17;;;6.90;;
5898;SDS011;2975;50.956;6.962;2023-04-30T08:37:55;6.97;;;6.27;;
5898;SDS011;2975;50.956;6.962;2023-04-30T08:40:20;9.87;;;5.93;;
5898;SDS011;2975;50.956;6.962;2023-04-30T08:42:50;11.07;;;6.63;;
5898;SDS011;2975;50.956;6.962;2023-04-30T08:45:24;8.20;;;6.40;;
5898;SDS011;2975;50.956;6.962;2023-04-30T08:47:50;5.73;;;5.00;;
5898;SDS011;2975;50.956;6.962;2023-04-30T08:50:16;7.60;;;6.77;;
5898;SDS011;2975;50.956;6.962;2023-04-30T08:52:42;8.30;;;6.50;;
5898;SDS011;2975;50.956;6.962;2023-04-30T08:55:08;8.53;;;5.93;;
5898;SDS011;2975;50.956;6.962;2023-04-30T08:57:35;9.43;;;7.00;;
5898;SDS011;2975;50.956;6.962;2023-04-30T09:00:02;4.93;;;4.27;;
5898;SDS011;2975;50.956;6.962;2023-04-30T09:02:31;8.37;;;4.90;;
5898;SDS011;2975;50.956;6.962;2023-04-30T09:04:57;7.43;;;5.30;;
5898;SDS011;2975;50.956;6.962;2023-04-30T09:07:23;6.97;;;4.27;;
5898;SDS011;2975;50.956;6.962;2023-04-30T09:09:52;6.50;;;4.73;;
5898;SDS011;2975;50.956;6.962;2023-04-30T09:12:18;7.50;;;4.90;;
5898;SDS011;2975;50.956;6.962;2023-04-30T09:15:00;7.03;;;5.17;;
5898;SDS011;2975;50.956;6.962;2023-04-30T09:17:27;6.37;;;5.03;;
5898;SDS011;2975;50.956;6.962;2023-04-30T09:19:53;7.17;;;5.20;;
5898;SDS011;2975;50.956;6.962;2023-04-30T09:22:30;8.23;;;4.60;;
5898;SDS011;2975;50.956;6.962;2023-04-30T09:24:56;5.70;;;3.77;;
5898;SDS011;2975;50.956;6.962;2023-04-30T09:27:22;5.23;;;3.90;;
5898;SDS011;2975;50.956;6.962;2023-04-30T09:29:48;4.53;;;3.43;;
5898;SDS011;2975;50.956;6.962;2023-04-30T09:32:14;5.07;;;3.30;;
5898;SDS011;2975;50.956;6.962;2023-04-30T09:34:39;5.10;;;3.77;;
5898;SDS011;2975;50.956;6.962;2023-04-30T09:37:06;7.17;;;3.80;;
5898;SDS011;2975;50.956;6.962;2023-04-30T09:39:32;5.87;;;3.83;;
5898;SDS011;2975;50.956;6.962;2023-04-30T09:42:07;4.10;;;3.50;;
5898;SDS011;2975;50.956;6.962;2023-04-30T09:44:36;3.67;;;3.30;;
5898;SDS011;2975;50.956;6.962;2023-04-30T09:47:03;5.23;;;3.07;;
5898;SDS011;2975;50.956;6.962;2023-04-30T09:49:29;3.87;;;2.57;;
5898;SDS011;2975;50.956;6.962;2023-04-30T09:51:58;4.37;;;2.70;;
5898;SDS011;2975;50.956;6.962;2023-04-30T09:54:28;5.13;;;4.30;;
5898;SDS011;2975;50.956;6.962;2023-04-30T09:56:56;2.53;;;2.33;;
5898;SDS011;2975;50.956;6.962;2023-04-30T09:59:28;5.93;;;2.23;;
5898;SDS011;2975;50.956;6.962;2023-04-30T10:01:59;2.47;;;1.70;;
5898;SDS011;2975;50.956;6.962;2023-04-30T10:04:30;1.87;;;1.77;;
5898;SDS011;2975;50.956;6.962;2023-04-30T10:09:50;2.10;;;1.50;;
5898;SDS011;2975;50.956;6.962;2023-04-30T10:12:23;1.20;;;1.10;;
5898;SDS011;2975;50.956;6.962;2023-04-30T10:14:55;1.43;;;1.30;;
5898;SDS011;2975;50.956;6.962;2023-04-30T10:17:29;2.83;;;1.57;;
5898;SDS011;2975;50.956;6.962;2023-04-30T10:20:01;1.17;;;1.10;;
5898;SDS011;2975;50.956;6.962;2023-04-30T10:22:32;1.57;;;0.93;;
5898;SDS011;2975;50.956;6.962;2023-04-30T10:24:58;2.60;;;1.10;;
5898;SDS011;2975;50.956;6.962;2023-04-30T10:27:26;0.90;;;0.90;;
5898;SDS011;2975;50.956;6.962;2023-04-30T10:29:53;0.93;;;0.93;;
5898;SDS011;2975;50.956;6.962;2023-04-30T10:32:19;1.77;;;1.13;;
5898;SDS011;2975;50.956;6.962;2023-04-30T10:37:42;0.83;;;0.83;;
5898;SDS011;2975;50.956;6.962;2023-04-30T10:40:11;0.80;;;0.80;;
5898;SDS011;2975;50.956;6.962;2023-04-30T10:42:43;1.30;;;1.20;;
5898;SDS011;2975;50.956;6.962;2023-04-30T10:45:14;1.37;;;1.03;;
5898;SDS011;2975;50.956;6.962;2023-04-30T10:47:41;1.20;;;1.10;;
5898;SDS011;2975;50.956;6.962;2023-04-30T10:50:09;3.20;;;1.70;;
5898;SDS011;2975;50.956;6.962;2023-04-30T10:52:36;2.97;;;1.43;;
5898;SDS011;2975;50.956;6.962;2023-04-30T10:55:05;1.00;;;1.00;;
5898;SDS011;2975;50.956;6.962;2023-04-30T10:57:34;1.57;;;0.97;;
5898;SDS011;2975;50.956;6.962;2023-04-30T11:02:40;0.77;;;0.77;;
5898;SDS011;2975;50.956;6.962;2023-04-30T11:05:11;2.53;;;1.23;;
5898;SDS011;2975;50.956;6.962;2023-04-30T11:08:11;1.63;;;1.10;;
5898;SDS011;2975;50.956;6.962;2023-04-30T11:10:35;1.47;;;0.87;;
5898;SDS011;2975;50.956;6.962;2023-04-30T11:13:04;2.57;;;1.23;;
5898;SDS011;2975;50.956;6.962;2023-04-30T11:15:39;1.00;;;1.00;;
5898;SDS011;2975;50.956;6.962;2023-04-30T11:18:06;1.23;;;1.10;;
5898;SDS011;2975;50.956;6.962;2023-04-30T11:20:32;1.20;;;1.07;;
5898;SDS011;2975;50.956;6.962;2023-04-30T11:23:07;2.53;;;1.23;;
5898;SDS011;2975;50.956;6.962;2023-04-30T11:25:43;1.87;;;0.90;;
5898;SDS011;2975;50.956;6.962;2023-04-30T11:28:12;1.60;;;1.00;;
5898;SDS011;2975;50.956;6.962;2023-04-30T11:30:55;2.60;;;0.70;;
5898;SDS011;2975;50.956;6.962;2023-04-30T11:33:23;1.13;;;1.03;;
5898;SDS011;2975;50.956;6.962;2023-04-30T11:35:53;1.00;;;1.00;;
5898;SDS011;2975;50.956;6.962;2023-04-30T11:38:27;1.00;;;1.00;;
5898;SDS011;2975;50.956;6.962;2023-04-30T11:41:00;0.83;;;0.70;;
5898;SDS011;2975;50.956;6.962;2023-04-30T11:43:30;1.57;;;0.90;;
5898;SDS011;2975;50.956;6.962;2023-04-30T11:48:55;0.70;;;0.70;;
5898;SDS011;2975;50.956;6.962;2023-04-30T11:51:22;0.80;;;0.80;;
5898;SDS011;2975;50.956;6.962;2023-04-30T11:53:49;0.80;;;0.80;;
5898;SDS011;2975;50.956;6.962;2023-04-30T11:56:16;1.40;;;0.97;;
5898;SDS011;2975;50.956;6.962;2023-04-30T11:58:46;0.80;;;0.80;;
5898;SDS011;2975;50.956;6.962;2023-04-30T12:01:12;0.90;;;0.90;;
5898;SDS011;2975;50.956;6.962;2023-04-30T12:03:39;0.70;;;0.70;;
5898;SDS011;2975;50.956;6.962;2023-04-30T12:06:24;1.30;;;0.80;;
5898;SDS011;2975;50.956;6.962;2023-04-30T12:08:55;1.40;;;0.80;;
5898;SDS011;2975;50.956;6.962;2023-04-30T12:11:22;0.77;;;0.77;;
5898;SDS011;2975;50.956;6.962;2023-04-30T12:13:53;1.23;;;0.83;;
5898;SDS011;2975;50.956;6.962;2023-04-30T12:16:21;0.90;;;0.70;;
5898;SDS011;2975;50.956;6.962;2023-04-30T12:18:52;0.70;;;0.70;;
5898;SDS011;2975;50.956;6.962;2023-04-30T12:21:17;0.70;;;0.70;;
5898;SDS011;2975;50.956;6.962;2023-04-30T12:23:45;0.60;;;0.60;;
5898;SDS011;2975;50.956;6.962;2023-04-30T12:26:11;0.60;;;0.60;;
5898;SDS011;2975;50.956;6.962;2023-04-30T12:28:37;1.23;;;0.73;;
5898;SDS011;2975;50.956;6.962;2023-04-30T12:31:03;0.60;;;0.60;;
5898;SDS011;2975;50.956;6.962;2023-04-30T12:33:30;0.80;;;0.80;;
5898;SDS011;2975;50.956;6.962;2023-04-30T12:35:56;0.70;;;0.70;;
5898;SDS011;2975;50.956;6.962;2023-04-30T12:38:23;0.77;;;0.60;;
5898;SDS011;2975;50.956;6.962;2023-04-30T12:40:49;0.53;;;0.53;;
5898;SDS011;2975;50.956;6.962;2023-04-30T12:43:15;1.00;;;0.60;;
5898;SDS011;2975;50.956;6.962;2023-04-30T12:48:15;0.50;;;0.50;;
5898;SDS011;2975;50.956;6.962;2023-04-30T12:50:41;1.40;;;0.70;;
5898;SDS011;2975;50.956;6.962;2023-04-30T12:53:11;0.87;;;0.60;;
5898;SDS011;2975;50.956;6.962;2023-04-30T12:55:36;0.70;;;0.70;;
5898;SDS011;2975;50.956;6.962;2023-04-30T12:58:10;0.50;;;0.50;;
5898;SDS011;2975;50.956;6.962;2023-04-30T13:00:48;0.60;;;0.60;;
5898;SDS011;2975;50.956;6.962;2023-04-30T13:03:18;1.43;;;0.57;;
5898;SDS011;2975;50.956;6.962;2023-04-30T13:05:45;0.60;;;0.60;;
5898;SDS011;2975;50.956;6.962;2023-04-30T13:08:13;0.63;;;0.63;;
5898;SDS011;2975;50.956;6.962;2023-04-30T13:10:38;0.63;;;0.63;;
5898;SDS011;2975;50.956;6.962;2023-04-30T13:13:04;1.03;;;0.70;;
5898;SDS011;2975;50.956;6.962;2023-04-30T13:15:29;0.60;;;0.60;;
5898;SDS011;2975;50.956;6.962;2023-04-30T13:17:55;0.40;;;0.40;;
5898;SDS011;2975;50.956;6.962;2023-04-30T13:20:21;0.50;;;0.50;;
5898;SDS011;2975;50.956;6.962;2023-04-30T13:22:48;0.57;;;0.57;;
5898;SDS011;2975;50.956;6.962;2023-04-30T13:25:15;0.70;;;0.60;;
5898;SDS011;2975;50.956;6.962;2023-04-30T13:27:41;1.00;;;1.00;;
5898;SDS011;2975;50.956;6.962;2023-04-30T13:30:08;0.73;;;0.73;;
5898;SDS011;2975;50.956;6.962;2023-04-30T13:32:34;2.10;;;0.80;;
5898;SDS011;2975;50.956;6.962;2023-04-30T13:35:00;0.70;;;0.60;;
5898;SDS011;2975;50.956;6.962;2023-04-30T13:37:26;0.60;;;0.60;;
5898;SDS011;2975;50.956;6.962;2023-04-30T13:39:55;0.50;;;0.50;;
5898;SDS011;2975;50.956;6.962;2023-04-30T13:42:21;0.50;;;0.50;;
5898;SDS011;2975;50.956;6.962;2023-04-30T13:44:46;1.80;;;0.70;;
5898;SDS011;2975;50.956;6.962;2023-04-30T13:47:14;0.50;;;0.50;;
5898;SDS011;2975;50.956;6.962;2023-04-30T13:49:40;1.27;;;0.57;;
5898;SDS011;2975;50.956;6.962;2023-04-30T13:52:05;0.90;;;0.90;;
5898;SDS011;2975;50.956;6.962;2023-04-30T13:54:31;1.23;;;0.73;;
5898;SDS011;2975;50.956;6.962;2023-04-30T13:56:57;0.70;;;0.50;;
5898;SDS011;2975;50.956;6.962;2023-04-30T13:59:26;0.60;;;0.60;;
5898;SDS011;2975;50.956;6.962;2023-04-30T14:01:52;1.03;;;0.83;;
5898;SDS011;2975;50.956;6.962;2023-04-30T14:04:18;0.90;;;0.70;;
5898;SDS011;2975;50.956;6.962;2023-04-30T14:06:44;0.65;;;0.65;;
5898;SDS011;2975;50.956;6.962;2023-04-30T14:09:09;0.67;;;0.67;;
5898;SDS011;2975;50.956;6.962;2023-04-30T14:11:35;0.80;;;0.50;;
5898;SDS011;2975;50.956;6.962;2023-04-30T14:14:01;0.70;;;0.70;;
5898;SDS011;2975;50.956;6.962;2023-04-30T14:16:27;1.37;;;0.70;;
5898;SDS011;2975;50.956;6.962;2023-04-30T14:18:52;1.40;;;0.60;;
5898;SDS011;2975;50.956;6.962;2023-04-30T14:21:18;0.60;;;0.60;;
5898;SDS011;2975;50.956;6.962;2023-04-30T14:23:44;1.00;;;0.70;;
5898;SDS011;2975;50.956;6.962;2023-04-30T14:26:12;0.60;;;0.60;;
5898;SDS011;2975;50.956;6.962;2023-04-30T14:28:38;0.67;;;0.67;;
5898;SDS011;2975;50.956;6.962;2023-04-30T14:31:04;0.60;;;0.60;;
5898;SDS011;2975;50.956;6.962;2023-04-30T14:33:30;0.40;;;0.40;;
5898;SDS011;2975;50.956;6.962;2023-04-30T14:35:56;0.73;;;0.70;;
5898;SDS011;2975;50.956;6.962;2023-04-30T14:38:25;0.60;;;0.60;;
5898;SDS011;2975;50.956;6.962;2023-04-30T14:40:51;1.90;;;0.73;;
5898;SDS011;2975;50.956;6.962;2023-04-30T14:43:16;0.63;;;0.60;;
5898;SDS011;2975;50.956;6.962;2023-04-30T14:45:42;0.77;;;0.70;;
5898;SDS011;2975;50.956;6.962;2023-04-30T14:48:09;0.63;;;0.63;;
5898;SDS011;2975;50.956;6.962;2023-04-30T14:50:35;1.13;;;1.03;;
5898;SDS011;2975;50.956;6.962;2023-04-30T14:53:01;0.80;;;0.80;;
5898;SDS011;2975;50.956;6.962;2023-04-30T14:55:28;0.70;;;0.70;;
5898;SDS011;2975;50.956;6.962;2023-04-30T14:57:53;1.47;;;0.97;;
5898;SDS011;2975;50.956;6.962;2023-04-30T15:00:19;1.13;;;1.00;;
5898;SDS011;2975;50.956;6.962;2023-04-30T15:02:45;0.97;;;0.97;;
5898;SDS011;2975;50.956;6.962;2023-04-30T15:05:11;1.10;;;0.80;;
5898;SDS011;2975;50.956;6.962;2023-04-30T15:07:37;0.60;;;0.60;;
5898;SDS011;2975;50.956;6.962;2023-04-30T15:10:03;0.60;;;0.60;;
5898;SDS011;2975;50.956;6.962;2023-04-30T15:12:30;0.50;;;0.50;;
5898;SDS011;2975;50.956;6.962;2023-04-30T15:14:56;0.67;;;0.60;;
5898;SDS011;2975;50.956;6.962;2023-04-30T15:17:22;0.70;;;0.70;;
5898;SDS011;2975;50.956;6.962;2023-04-30T15:19:48;0.60;;;0.60;;
5898;SDS011;2975;50.956;6.962;2023-04-30T15:22:13;0.70;;;0.70;;
5898;SDS011;2975;50.956;6.962;2023-04-30T15:24:40;1.50;;;0.77;;
5898;SDS011;2975;50.956;6.962;2023-04-30T15:27:05;0.70;;;0.70;;
5898;SDS011;2975;50.956;6.962;2023-04-30T15:29:31;0.70;;;0.70;;
5898;SDS011;2975;50.956;6.962;2023-04-30T15:31:57;1.57;;;0.70;;
5898;SDS011;2975;50.956;6.962;2023-04-30T15:34:23;0.70;;;0.70;;
5898;SDS011;2975;50.956;6.962;2023-04-30T15:36:50;1.73;;;0.77;;